createdAt,value
2023-05-25T00:00:05.687Z,32.20
2023-05-25T00:02:34.223Z,32.20
2023-05-25T00:05:03.573Z,32.20
2023-05-25T00:07:34.532Z,32.20
2023-05-25T00:10:03.704Z,32.30
2023-05-25T00:12:35.244Z,32.30
2023-05-25T00:15:04.760Z,32.30
2023-05-25T00:17:33.890Z,32.30
2023-05-25T00:20:03.389Z,32.30
2023-05-25T00:22:32.779Z,32.40
2023-05-25T00:25:01.963Z,32.40
2023-05-25T00:27:31.154Z,32.40
2023-05-25T00:30:00.500Z,32.40
2023-05-25T00:32:29.800Z,32.40
2023-05-25T00:34:59.276Z,32.40
2023-05-25T00:37:30.708Z,32.40
2023-05-25T00:39:59.714Z,32.40
2023-05-25T00:42:28.812Z,32.40
2023-05-25T00:44:58.217Z,32.50
2023-05-25T00:47:27.885Z,32.50
2023-05-25T00:49:57.120Z,32.50
2023-05-25T00:52:26.323Z,32.50
2023-05-25T00:54:55.626Z,32.50
2023-05-25T00:57:25.246Z,32.60
2023-05-25T00:59:54.654Z,32.60
2023-05-25T01:02:24.053Z,32.60
2023-05-25T01:04:53.758Z,32.60
2023-05-25T01:07:23.081Z,32.60
2023-05-25T01:09:52.147Z,32.60
2023-05-25T01:12:21.450Z,32.60
2023-05-25T01:14:50.879Z,32.60
2023-05-25T01:17:20.188Z,32.70
2023-05-25T01:20:01.614Z,32.60
2023-05-25T01:22:20.291Z,32.70
2023-05-25T01:24:49.572Z,32.70
2023-05-25T01:27:19.087Z,32.70
2023-05-25T01:29:48.397Z,32.70
2023-05-25T01:32:18.045Z,32.80
2023-05-25T01:34:47.412Z,32.80
2023-05-25T01:37:18.141Z,32.80
2023-05-25T01:39:47.425Z,32.80
2023-05-25T01:42:16.634Z,32.80
2023-05-25T01:44:46.247Z,32.80
2023-05-25T01:47:15.765Z,32.80
2023-05-25T01:49:45.028Z,32.80
2023-05-25T01:52:15.039Z,32.80
2023-05-25T01:54:44.367Z,32.90
2023-05-25T01:57:13.781Z,32.90
2023-05-25T01:59:44.712Z,32.90
2023-05-25T02:02:14.122Z,32.90
2023-05-25T02:04:43.431Z,32.90
2023-05-25T02:07:12.818Z,33.00
2023-05-25T02:09:42.324Z,33.00
2023-05-25T02:12:12.962Z,33.00
2023-05-25T02:14:42.254Z,33.00
2023-05-25T02:17:11.143Z,33.00
2023-05-25T02:19:40.452Z,33.00
2023-05-25T02:22:09.651Z,33.00
2023-05-25T02:24:38.842Z,33.10
2023-05-25T02:27:08.039Z,33.10
2023-05-25T02:29:37.965Z,33.10
2023-05-25T02:32:06.948Z,33.20
2023-05-25T02:34:36.142Z,33.20
2023-05-25T02:37:05.454Z,33.20
2023-05-25T02:39:34.448Z,33.20
2023-05-25T02:42:04.161Z,33.20
2023-05-25T02:44:33.261Z,33.20
2023-05-25T02:47:03.152Z,33.20
2023-05-25T02:49:35.356Z,33.30
2023-05-25T02:52:04.630Z,33.30
2023-05-25T02:54:35.157Z,33.30
2023-05-25T02:57:04.441Z,33.30
2023-05-25T02:59:33.962Z,33.40
2023-05-25T03:02:04.101Z,33.40
2023-05-25T03:04:35.646Z,33.40
2023-05-25T03:07:04.962Z,33.40
2023-05-25T03:09:34.442Z,33.50
2023-05-25T03:12:04.155Z,33.50
2023-05-25T03:14:33.253Z,33.50
2023-05-25T03:17:03.818Z,33.50
2023-05-25T03:19:32.867Z,33.50
2023-05-25T03:22:01.862Z,33.50
2023-05-25T03:24:31.077Z,33.60
2023-05-25T03:27:01.391Z,33.60
2023-05-25T03:29:30.485Z,33.60
2023-05-25T03:31:59.449Z,33.60
2023-05-25T03:34:28.886Z,33.60
2023-05-25T03:36:57.872Z,33.60
2023-05-25T03:39:26.975Z,33.70
2023-05-25T03:41:56.294Z,33.70
2023-05-25T03:44:25.890Z,33.70
2023-05-25T03:46:54.784Z,33.70
2023-05-25T03:49:24.175Z,33.80
2023-05-25T03:51:53.164Z,33.70
2023-05-25T03:54:22.055Z,33.80
2023-05-25T03:56:51.047Z,33.80
2023-05-25T03:59:20.251Z,33.80
2023-05-25T04:01:49.553Z,33.80
2023-05-25T04:04:18.464Z,33.90
2023-05-25T04:06:47.531Z,33.90
2023-05-25T04:09:18.298Z,33.90
2023-05-25T04:11:47.256Z,33.90
2023-05-25T04:14:17.073Z,33.90
2023-05-25T04:16:46.338Z,33.90
2023-05-25T04:19:16.794Z,33.90
2023-05-25T04:21:45.896Z,33.90
2023-05-25T04:24:15.194Z,34.00
2023-05-25T04:26:45.731Z,34.00
2023-05-25T04:29:14.616Z,34.00
2023-05-25T04:31:47.977Z,34.00
2023-05-25T04:34:34.923Z,34.00
2023-05-25T04:37:05.593Z,34.00
2023-05-25T04:39:35.669Z,34.10
2023-05-25T04:42:05.187Z,34.10
2023-05-25T04:44:35.094Z,34.10
2023-05-25T04:47:05.519Z,34.10
2023-05-25T04:49:35.439Z,34.10
2023-05-25T04:52:04.748Z,34.10
2023-05-25T04:54:34.255Z,34.20
2023-05-25T04:57:03.524Z,34.20
2023-05-25T04:59:33.477Z,34.20
2023-05-25T05:02:02.663Z,34.20
2023-05-25T05:04:31.962Z,34.20
2023-05-25T05:07:01.052Z,34.20
2023-05-25T05:09:31.822Z,34.20
2023-05-25T05:12:02.011Z,34.20
2023-05-25T05:14:36.147Z,34.30
2023-05-25T05:17:05.404Z,34.30
2023-05-25T05:19:34.517Z,34.30
2023-05-25T05:22:05.049Z,34.30
2023-05-25T05:24:35.074Z,34.30
2023-05-25T05:27:04.943Z,34.40
2023-05-25T05:29:38.483Z,34.40
2023-05-25T05:32:07.895Z,34.40
2023-05-25T05:34:39.945Z,34.40
2023-05-25T05:37:10.375Z,34.50
2023-05-25T05:39:39.786Z,34.50
2023-05-25T05:42:09.519Z,34.50
2023-05-25T05:44:38.596Z,34.50
2023-05-25T05:47:07.706Z,34.50
2023-05-25T05:49:36.983Z,34.50
2023-05-25T05:52:05.972Z,34.60
2023-05-25T05:54:35.379Z,34.60
2023-05-25T05:57:06.012Z,34.60
2023-05-25T05:59:34.897Z,34.60
2023-05-25T06:02:04.283Z,34.60
2023-05-25T06:04:33.720Z,34.70
2023-05-25T06:07:02.915Z,34.70
2023-05-25T06:09:32.100Z,34.70
2023-05-25T06:12:01.621Z,34.70
2023-05-25T06:14:31.205Z,34.70
2023-05-25T12:58:59.718Z,34.10
2023-05-25T13:01:28.999Z,34.10
2023-05-25T13:03:58.108Z,34.10
2023-05-25T13:06:27.210Z,34.20
2023-05-25T13:08:56.847Z,34.30
2023-05-25T13:11:25.805Z,34.40
2023-05-25T13:13:54.849Z,34.50
2023-05-25T13:16:24.220Z,34.70
2023-05-25T13:18:53.196Z,34.70
2023-05-25T13:21:22.598Z,34.80
2023-05-25T13:23:51.698Z,34.90
2023-05-25T13:26:20.790Z,34.90
2023-05-25T13:28:49.883Z,35.00
2023-05-25T13:31:18.909Z,35.10
2023-05-25T13:33:48.393Z,35.10
2023-05-25T13:36:17.378Z,35.10
2023-05-25T13:38:46.581Z,35.10
2023-05-25T13:41:16.450Z,34.80
2023-05-25T13:43:47.357Z,34.00
2023-05-25T13:46:32.861Z,32.40
2023-05-25T13:48:46.856Z,31.30
2023-05-25T13:51:15.840Z,30.60
2023-05-25T13:53:44.843Z,30.20
2023-05-25T13:56:13.941Z,29.90
2023-05-25T13:58:44.599Z,29.70
2023-05-25T14:01:16.438Z,29.60
2023-05-25T14:03:47.540Z,29.50
2023-05-25T14:06:17.896Z,29.40
2023-05-25T14:08:46.782Z,29.40
2023-05-25T14:11:18.398Z,29.40
2023-05-25T14:13:47.149Z,29.30
2023-05-25T14:16:16.197Z,29.20
2023-05-25T14:18:45.107Z,29.20
2023-05-25T14:21:14.316Z,29.20
2023-05-25T14:23:43.626Z,29.20
2023-05-25T14:26:12.601Z,29.10
2023-05-25T14:28:41.494Z,29.10
2023-05-25T14:31:10.620Z,28.90
2023-05-25T14:33:41.344Z,28.80
2023-05-25T14:36:09.874Z,28.80
2023-05-25T14:38:39.108Z,28.80
2023-05-25T14:41:07.998Z,28.80
2023-05-25T14:43:37.094Z,28.70
2023-05-25T14:46:06.386Z,28.70
2023-05-25T14:48:35.331Z,28.60
2023-05-25T14:51:04.379Z,28.60
2023-05-25T14:53:33.292Z,28.50
2023-05-25T14:56:02.470Z,28.50
2023-05-25T14:58:31.465Z,28.40
2023-05-25T15:01:03.428Z,28.40
2023-05-25T15:03:32.619Z,28.40
2023-05-25T15:06:01.623Z,28.40
2023-05-25T15:08:30.604Z,28.30
2023-05-25T15:11:00.013Z,28.30
2023-05-25T15:13:29.007Z,28.30
2023-05-25T15:15:57.996Z,28.30
2023-05-25T15:18:27.210Z,28.30
2023-05-25T15:20:56.085Z,28.40
2023-05-25T15:23:24.983Z,28.40
2023-05-25T15:25:54.182Z,28.40
2023-05-25T15:28:23.278Z,28.20
2023-05-25T15:30:52.164Z,28.10
2023-05-25T15:33:21.054Z,28.00
2023-05-25T15:35:50.062Z,28.00
2023-05-25T15:38:19.058Z,28.00
2023-05-25T15:40:47.932Z,27.90
2023-05-25T15:43:17.132Z,27.80
2023-05-25T15:45:46.597Z,27.80
2023-05-25T15:48:15.738Z,27.80
2023-05-25T15:50:44.627Z,27.80
2023-05-25T15:53:13.524Z,27.70
2023-05-25T15:55:42.828Z,27.70
2023-05-25T15:58:11.922Z,27.60
2023-05-25T16:00:40.910Z,27.60
2023-05-25T16:03:10.059Z,27.60
2023-05-25T16:05:39.097Z,27.60
2023-05-25T16:08:08.093Z,27.60
2023-05-25T16:10:37.301Z,27.50
2023-05-25T16:13:06.283Z,27.50
2023-05-25T16:15:35.374Z,27.50
2023-05-25T16:18:04.592Z,27.50
2023-05-25T16:20:33.638Z,27.40
2023-05-25T16:23:02.769Z,27.40
2023-05-25T16:25:32.064Z,27.40
2023-05-25T16:28:01.172Z,27.40
2023-05-25T16:30:30.058Z,27.40
2023-05-25T16:32:58.966Z,27.40
2023-05-25T16:35:27.947Z,27.40
2023-05-25T16:37:56.824Z,27.40
2023-05-25T16:40:25.928Z,27.30
2023-05-25T16:42:55.132Z,27.30
2023-05-25T16:45:26.220Z,27.40
2023-05-25T16:47:54.503Z,27.40
2023-05-25T16:50:23.748Z,27.40
2023-05-25T16:52:52.944Z,27.40
2023-05-25T16:55:21.923Z,27.40
2023-05-25T16:57:51.045Z,27.30
2023-05-25T17:00:20.230Z,27.40
2023-05-25T17:02:49.459Z,27.30
2023-05-25T17:05:18.407Z,27.30
2023-05-25T17:07:47.296Z,27.30
2023-05-25T17:10:16.611Z,27.20
2023-05-25T17:12:45.716Z,27.20
2023-05-25T17:15:14.694Z,27.10
2023-05-25T17:17:43.848Z,27.20
2023-05-25T17:20:13.017Z,27.30
2023-05-25T17:22:41.874Z,27.40
2023-05-25T17:25:10.883Z,27.40
2023-05-25T17:27:39.974Z,27.40
2023-05-25T17:30:08.964Z,27.40
2023-05-25T17:32:37.994Z,27.40
2023-05-25T17:35:07.464Z,27.40
2023-05-25T17:37:36.458Z,27.40
2023-05-25T17:40:05.758Z,27.50
2023-05-25T17:42:34.656Z,27.40
2023-05-25T17:45:05.820Z,27.40
2023-05-25T17:47:34.716Z,27.40
2023-05-25T17:50:03.690Z,27.20
2023-05-25T17:52:33.091Z,27.10
2023-05-25T17:55:02.073Z,27.00
2023-05-25T17:57:30.964Z,27.00
2023-05-25T17:59:59.848Z,26.90
2023-05-25T18:02:29.080Z,26.90
2023-05-25T18:04:58.564Z,26.90
2023-05-25T18:07:27.762Z,26.90
2023-05-25T18:09:57.648Z,26.90
2023-05-25T18:12:26.559Z,26.90
2023-05-25T18:14:55.667Z,26.90
2023-05-25T18:17:24.734Z,27.00
2023-05-25T18:19:53.812Z,27.00
2023-05-25T18:22:25.048Z,27.00
2023-05-25T18:24:54.090Z,27.00
2023-05-25T18:27:22.974Z,27.00
2023-05-25T18:29:51.895Z,27.00
2023-05-25T18:32:20.892Z,27.00
2023-05-25T18:34:49.872Z,27.10
2023-05-25T18:37:18.854Z,27.00
2023-05-25T18:39:47.740Z,27.10
2023-05-25T18:42:16.634Z,27.10
2023-05-25T18:44:45.743Z,27.10
2023-05-25T18:47:14.826Z,27.10
2023-05-25T18:49:43.713Z,27.10
2023-05-25T18:52:12.603Z,27.00
2023-05-25T18:54:41.501Z,27.00
2023-05-25T18:57:10.569Z,26.90
2023-05-25T18:59:39.612Z,26.90
2023-05-25T19:02:08.649Z,26.80
2023-05-25T19:04:37.798Z,26.80
2023-05-25T19:07:06.664Z,26.80
2023-05-25T19:09:35.670Z,26.80
2023-05-25T19:12:04.555Z,26.80
2023-05-25T19:14:33.552Z,26.80
2023-05-25T19:17:02.440Z,26.70
2023-05-25T19:19:33.183Z,26.70
2023-05-25T19:22:02.060Z,26.70
2023-05-25T19:24:31.471Z,26.60
2023-05-25T19:27:00.564Z,26.60
2023-05-25T19:29:32.624Z,26.60
2023-05-25T19:32:01.587Z,26.60
2023-05-25T19:34:30.612Z,26.60
2023-05-25T19:37:07.578Z,26.50
2023-05-25T19:39:29.720Z,26.50
2023-05-25T19:41:58.611Z,26.50
2023-05-25T19:44:27.507Z,26.50
2023-05-25T19:46:56.502Z,26.50
2023-05-25T19:49:25.495Z,26.50
2023-05-25T19:51:54.379Z,26.50
2023-05-25T19:54:23.481Z,26.50
2023-05-25T19:56:52.469Z,26.50
2023-05-25T19:59:21.467Z,26.50
2023-05-25T20:01:50.804Z,26.40
2023-05-25T20:04:19.757Z,26.40
2023-05-25T20:06:48.647Z,26.30
2023-05-25T20:09:17.545Z,26.40
2023-05-25T20:11:46.436Z,26.30
2023-05-25T20:14:15.652Z,26.40
2023-05-25T20:16:45.446Z,26.30
2023-05-25T20:19:14.430Z,26.40
2023-05-25T20:21:43.294Z,26.30
2023-05-25T20:24:12.326Z,26.30
2023-05-25T20:26:41.209Z,26.20
2023-05-25T20:29:10.201Z,26.20
2023-05-25T20:31:39.126Z,26.20
2023-05-25T20:34:08.294Z,26.20
2023-05-25T20:36:37.186Z,26.20
2023-05-25T20:39:06.183Z,26.20
2023-05-25T20:41:35.086Z,26.20
2023-05-25T20:44:03.952Z,26.10
2023-05-25T20:46:32.933Z,26.10
2023-05-25T20:49:02.052Z,26.20
2023-05-25T20:51:31.047Z,26.20
2023-05-25T20:53:59.932Z,26.30
2023-05-25T20:56:28.930Z,26.30
2023-05-25T20:58:57.940Z,26.30
2023-05-25T21:01:27.135Z,26.30
2023-05-25T21:03:56.154Z,26.30
2023-05-25T21:06:25.325Z,26.30
2023-05-25T21:08:54.557Z,26.20
2023-05-25T21:11:23.506Z,26.30
2023-05-25T21:13:52.395Z,26.30
2023-05-25T21:16:21.429Z,26.20
2023-05-25T21:18:50.601Z,26.30
2023-05-25T21:21:19.575Z,26.30
2023-05-25T21:23:48.474Z,26.30
2023-05-25T21:26:17.472Z,26.20
2023-05-25T21:28:46.457Z,26.20
2023-05-25T21:31:15.482Z,26.20
2023-05-25T21:33:44.647Z,26.60
2023-05-25T21:36:13.528Z,27.20
2023-05-25T21:38:42.715Z,27.80
2023-05-25T21:41:11.705Z,28.30
2023-05-25T21:43:42.714Z,28.70
2023-05-25T21:46:11.653Z,29.00
2023-05-25T21:48:40.767Z,29.30
2023-05-25T21:51:09.652Z,29.60
2023-05-25T21:53:38.645Z,29.80
2023-05-25T21:56:07.535Z,30.00
2023-05-25T21:58:36.721Z,30.20
2023-05-25T22:01:05.677Z,30.30
2023-05-25T22:03:35.122Z,30.50
2023-05-25T22:06:04.334Z,30.50
2023-05-25T22:08:33.316Z,30.60
2023-05-25T22:11:02.413Z,30.70
2023-05-25T22:13:31.406Z,30.70
2023-05-25T22:16:00.298Z,30.80
2023-05-25T22:18:29.193Z,30.80
2023-05-25T22:20:58.166Z,30.90
2023-05-25T22:23:27.170Z,30.90
2023-05-25T22:25:56.269Z,31.00
2023-05-25T22:28:25.151Z,31.00
2023-05-25T22:30:54.185Z,31.00
2023-05-25T22:33:23.150Z,31.10
2023-05-25T22:35:52.033Z,31.10
2023-05-25T22:38:21.037Z,31.20
2023-05-25T22:40:49.932Z,31.20
2023-05-25T22:43:19.216Z,31.20
2023-05-25T22:45:48.205Z,31.30
2023-05-25T22:48:17.084Z,31.30
2023-05-25T22:50:46.103Z,31.30
2023-05-25T22:53:21.332Z,31.30
2023-05-25T22:55:53.924Z,31.40
2023-05-25T22:58:22.815Z,31.50
2023-05-25T23:00:51.797Z,31.50
2023-05-25T23:03:20.851Z,31.60
2023-05-25T23:05:49.996Z,31.60
2023-05-25T23:08:18.979Z,31.60
2023-05-25T23:10:47.870Z,31.70
2023-05-25T23:13:16.749Z,31.70
2023-05-25T23:15:46.054Z,31.80
2023-05-25T23:18:15.267Z,31.80
2023-05-25T23:20:44.494Z,31.90
